sensor_id;sensor_type;location;lat;lon;timestamp;P1;durP1;ratioP1;P2;durP2;ratioP2
11187;SDS011;5650;52.700;7.306;2022-08-30T00:01:23;3.60;;;2.20;;
11187;SDS011;5650;52.700;7.306;2022-08-30T00:03:52;3.42;;;2.08;;
11187;SDS011;5650;52.700;7.306;2022-08-30T00:06:20;4.47;;;2.60;;
11187;SDS011;5650;52.700;7.306;2022-08-30T00:08:48;3.65;;;2.42;;
11187;SDS011;5650;52.700;7.306;2022-08-30T00:11:17;4.32;;;2.75;;
11187;SDS011;5650;52.700;7.306;2022-08-30T00:13:50;3.90;;;2.80;;
11187;SDS011;5650;52.700;7.306;2022-08-30T00:16:32;5.78;;;2.53;;
11187;SDS011;5650;52.700;7.306;2022-08-30T00:18:59;4.50;;;2.75;;
11187;SDS011;5650;52.700;7.306;2022-08-30T00:21:29;9.77;;;3.08;;
11187;SDS011;5650;52.700;7.306;2022-08-30T00:23:59;3.30;;;2.53;;
11187;SDS011;5650;52.700;7.306;2022-08-30T00:26:35;5.63;;;2.95;;
11187;SDS011;5650;52.700;7.306;2022-08-30T00:29:02;5.03;;;2.33;;
11187;SDS011;5650;52.700;7.306;2022-08-30T00:31:29;6.03;;;2.80;;
11187;SDS011;5650;52.700;7.306;2022-08-30T00:34:03;6.30;;;2.55;;
11187;SDS011;5650;52.700;7.306;2022-08-30T00:36:39;5.93;;;2.65;;
11187;SDS011;5650;52.700;7.306;2022-08-30T00:39:06;3.85;;;2.42;;
11187;SDS011;5650;52.700;7.306;2022-08-30T00:41:39;4.57;;;2.45;;
11187;SDS011;5650;52.700;7.306;2022-08-30T00:44:06;5.57;;;2.70;;
11187;SDS011;5650;52.700;7.306;2022-08-30T00:46:35;6.50;;;2.83;;
11187;SDS011;5650;52.700;7.306;2022-08-30T00:49:04;4.65;;;2.45;;
11187;SDS011;5650;52.700;7.306;2022-08-30T00:51:34;5.05;;;2.25;;
11187;SDS011;5650;52.700;7.306;2022-08-30T00:54:04;6.22;;;2.42;;
11187;SDS011;5650;52.700;7.306;2022-08-30T00:56:35;4.60;;;2.60;;
11187;SDS011;5650;52.700;7.306;2022-08-30T00:59:05;7.53;;;2.88;;
11187;SDS011;5650;52.700;7.306;2022-08-30T01:01:35;4.85;;;2.45;;
11187;SDS011;5650;52.700;7.306;2022-08-30T01:04:03;4.93;;;2.58;;
11187;SDS011;5650;52.700;7.306;2022-08-30T01:06:35;3.90;;;2.60;;
11187;SDS011;5650;52.700;7.306;2022-08-30T01:09:04;3.42;;;2.47;;
11187;SDS011;5650;52.700;7.306;2022-08-30T01:11:35;4.78;;;2.60;;
11187;SDS011;5650;52.700;7.306;2022-08-30T01:14:03;4.50;;;2.88;;
11187;SDS011;5650;52.700;7.306;2022-08-30T01:16:36;5.20;;;2.45;;
11187;SDS011;5650;52.700;7.306;2022-08-30T01:19:05;4.00;;;2.75;;
11187;SDS011;5650;52.700;7.306;2022-08-30T01:21:44;4.60;;;3.08;;
11187;SDS011;5650;52.700;7.306;2022-08-30T01:24:15;4.82;;;2.85;;
11187;SDS011;5650;52.700;7.306;2022-08-30T01:26:43;3.60;;;2.80;;
11187;SDS011;5650;52.700;7.306;2022-08-30T01:29:11;3.28;;;2.65;;
11187;SDS011;5650;52.700;7.306;2022-08-30T01:31:42;3.67;;;2.72;;
11187;SDS011;5650;52.700;7.306;2022-08-30T01:34:13;4.82;;;3.10;;
11187;SDS011;5650;52.700;7.306;2022-08-30T01:36:41;8.82;;;3.10;;
11187;SDS011;5650;52.700;7.306;2022-08-30T01:39:11;5.95;;;2.90;;
11187;SDS011;5650;52.700;7.306;2022-08-30T01:41:42;4.93;;;2.80;;
11187;SDS011;5650;52.700;7.306;2022-08-30T01:44:10;8.05;;;3.08;;
11187;SDS011;5650;52.700;7.306;2022-08-30T01:46:42;8.38;;;3.20;;
11187;SDS011;5650;52.700;7.306;2022-08-30T01:49:12;5.75;;;3.10;;
11187;SDS011;5650;52.700;7.306;2022-08-30T01:51:42;7.70;;;3.30;;
11187;SDS011;5650;52.700;7.306;2022-08-30T01:54:09;6.55;;;3.55;;
11187;SDS011;5650;52.700;7.306;2022-08-30T01:56:37;4.40;;;2.83;;
11187;SDS011;5650;52.700;7.306;2022-08-30T01:59:05;9.90;;;3.03;;
11187;SDS011;5650;52.700;7.306;2022-08-30T02:01:33;6.40;;;3.17;;
11187;SDS011;5650;52.700;7.306;2022-08-30T02:04:07;5.22;;;3.28;;
11187;SDS011;5650;52.700;7.306;2022-08-30T02:06:36;6.93;;;3.50;;
11187;SDS011;5650;52.700;7.306;2022-08-30T02:09:04;4.38;;;3.05;;
11187;SDS011;5650;52.700;7.306;2022-08-30T02:11:31;5.82;;;3.42;;
11187;SDS011;5650;52.700;7.306;2022-08-30T02:13:58;4.57;;;3.00;;
11187;SDS011;5650;52.700;7.306;2022-08-30T02:16:27;7.28;;;3.17;;
11187;SDS011;5650;52.700;7.306;2022-08-30T02:18:54;5.20;;;3.28;;
11187;SDS011;5650;52.700;7.306;2022-08-30T02:21:24;5.43;;;2.97;;
11187;SDS011;5650;52.700;7.306;2022-08-30T02:23:52;5.57;;;3.65;;
11187;SDS011;5650;52.700;7.306;2022-08-30T02:26:20;5.95;;;3.63;;
11187;SDS011;5650;52.700;7.306;2022-08-30T02:28:50;6.32;;;3.70;;
11187;SDS011;5650;52.700;7.306;2022-08-30T02:31:18;7.22;;;3.78;;
11187;SDS011;5650;52.700;7.306;2022-08-30T02:33:48;3.97;;;3.17;;
11187;SDS011;5650;52.700;7.306;2022-08-30T02:36:20;6.63;;;3.55;;
11187;SDS011;5650;52.700;7.306;2022-08-30T02:38:53;7.30;;;4.03;;
11187;SDS011;5650;52.700;7.306;2022-08-30T02:41:20;5.90;;;3.50;;
11187;SDS011;5650;52.700;7.306;2022-08-30T02:43:48;5.53;;;3.50;;
11187;SDS011;5650;52.700;7.306;2022-08-30T02:46:18;5.53;;;3.90;;
11187;SDS011;5650;52.700;7.306;2022-08-30T02:48:50;9.35;;;4.15;;
11187;SDS011;5650;52.700;7.306;2022-08-30T02:51:23;7.43;;;3.85;;
11187;SDS011;5650;52.700;7.306;2022-08-30T02:53:53;6.70;;;3.90;;
11187;SDS011;5650;52.700;7.306;2022-08-30T02:56:22;9.93;;;3.97;;
11187;SDS011;5650;52.700;7.306;2022-08-30T02:58:49;6.95;;;3.90;;
11187;SDS011;5650;52.700;7.306;2022-08-30T03:01:16;4.95;;;3.83;;
11187;SDS011;5650;52.700;7.306;2022-08-30T03:03:43;4.03;;;3.45;;
11187;SDS011;5650;52.700;7.306;2022-08-30T03:06:12;4.97;;;3.97;;
11187;SDS011;5650;52.700;7.306;2022-08-30T03:08:40;8.43;;;4.45;;
11187;SDS011;5650;52.700;7.306;2022-08-30T03:11:07;10.15;;;4.40;;
11187;SDS011;5650;52.700;7.306;2022-08-30T03:13:35;4.78;;;4.18;;
11187;SDS011;5650;52.700;7.306;2022-08-30T03:16:02;8.45;;;4.38;;
11187;SDS011;5650;52.700;7.306;2022-08-30T03:18:29;10.93;;;4.63;;
11187;SDS011;5650;52.700;7.306;2022-08-30T03:20:57;7.45;;;4.68;;
11187;SDS011;5650;52.700;7.306;2022-08-30T03:23:27;7.20;;;4.90;;
11187;SDS011;5650;52.700;7.306;2022-08-30T03:26:07;12.63;;;4.30;;
11187;SDS011;5650;52.700;7.306;2022-08-30T03:28:34;7.22;;;4.32;;
11187;SDS011;5650;52.700;7.306;2022-08-30T03:31:04;6.50;;;4.45;;
11187;SDS011;5650;52.700;7.306;2022-08-30T03:33:32;7.28;;;5.05;;
11187;SDS011;5650;52.700;7.306;2022-08-30T03:36:04;11.05;;;4.78;;
11187;SDS011;5650;52.700;7.306;2022-08-30T03:38:38;7.43;;;4.85;;
11187;SDS011;5650;52.700;7.306;2022-08-30T03:41:06;9.32;;;5.13;;
11187;SDS011;5650;52.700;7.306;2022-08-30T03:43:33;9.98;;;5.30;;
11187;SDS011;5650;52.700;7.306;2022-08-30T03:46:00;7.28;;;5.35;;
11187;SDS011;5650;52.700;7.306;2022-08-30T03:48:36;9.63;;;5.60;;
11187;SDS011;5650;52.700;7.306;2022-08-30T03:51:03;8.32;;;5.57;;
11187;SDS011;5650;52.700;7.306;2022-08-30T03:53:33;13.23;;;5.70;;
11187;SDS011;5650;52.700;7.306;2022-08-30T03:56:11;10.57;;;5.78;;
11187;SDS011;5650;52.700;7.306;2022-08-30T03:58:41;6.65;;;5.47;;
11187;SDS011;5650;52.700;7.306;2022-08-30T04:01:08;7.20;;;5.47;;
11187;SDS011;5650;52.700;7.306;2022-08-30T04:03:35;8.60;;;5.82;;
11187;SDS011;5650;52.700;7.306;2022-08-30T04:06:05;7.95;;;5.70;;
11187;SDS011;5650;52.700;7.306;2022-08-30T04:08:35;8.63;;;5.47;;
11187;SDS011;5650;52.700;7.306;2022-08-30T04:11:04;8.18;;;6.28;;
11187;SDS011;5650;52.700;7.306;2022-08-30T04:13:33;6.43;;;5.50;;
11187;SDS011;5650;52.700;7.306;2022-08-30T04:16:00;9.25;;;5.88;;
11187;SDS011;5650;52.700;7.306;2022-08-30T04:18:28;11.10;;;5.28;;
11187;SDS011;5650;52.700;7.306;2022-08-30T04:20:55;10.63;;;5.70;;
11187;SDS011;5650;52.700;7.306;2022-08-30T04:23:22;10.18;;;5.88;;
11187;SDS011;5650;52.700;7.306;2022-08-30T04:25:49;10.18;;;5.70;;
11187;SDS011;5650;52.700;7.306;2022-08-30T04:28:16;6.20;;;5.60;;
11187;SDS011;5650;52.700;7.306;2022-08-30T04:30:45;9.75;;;5.93;;
11187;SDS011;5650;52.700;7.306;2022-08-30T04:33:13;10.90;;;5.97;;
11187;SDS011;5650;52.700;7.306;2022-08-30T04:35:42;9.57;;;5.68;;
11187;SDS011;5650;52.700;7.306;2022-08-30T04:38:10;14.05;;;6.18;;
11187;SDS011;5650;52.700;7.306;2022-08-30T04:40:39;13.23;;;5.95;;
11187;SDS011;5650;52.700;7.306;2022-08-30T04:43:09;8.50;;;6.40;;
11187;SDS011;5650;52.700;7.306;2022-08-30T04:45:36;7.75;;;5.68;;
11187;SDS011;5650;52.700;7.306;2022-08-30T04:48:06;9.07;;;6.20;;
11187;SDS011;5650;52.700;7.306;2022-08-30T04:50:34;12.80;;;6.32;;
11187;SDS011;5650;52.700;7.306;2022-08-30T04:53:01;8.82;;;5.75;;
11187;SDS011;5650;52.700;7.306;2022-08-30T04:55:29;7.38;;;5.38;;
11187;SDS011;5650;52.700;7.306;2022-08-30T04:57:56;11.48;;;5.47;;
11187;SDS011;5650;52.700;7.306;2022-08-30T05:00:24;7.13;;;5.78;;
11187;SDS011;5650;52.700;7.306;2022-08-30T05:02:52;9.30;;;5.78;;
11187;SDS011;5650;52.700;7.306;2022-08-30T05:05:20;9.27;;;5.43;;
11187;SDS011;5650;52.700;7.306;2022-08-30T05:08:11;8.90;;;5.88;;
11187;SDS011;5650;52.700;7.306;2022-08-30T05:10:39;8.15;;;5.88;;
11187;SDS011;5650;52.700;7.306;2022-08-30T05:13:08;10.23;;;5.50;;
11187;SDS011;5650;52.700;7.306;2022-08-30T05:15:36;7.72;;;5.85;;
11187;SDS011;5650;52.700;7.306;2022-08-30T05:18:04;6.63;;;5.95;;
11187;SDS011;5650;52.700;7.306;2022-08-30T05:20:34;8.63;;;6.18;;
11187;SDS011;5650;52.700;7.306;2022-08-30T05:23:02;10.15;;;6.03;;
11187;SDS011;5650;52.700;7.306;2022-08-30T05:25:31;9.15;;;6.22;;
11187;SDS011;5650;52.700;7.306;2022-08-30T05:28:05;10.70;;;6.65;;
11187;SDS011;5650;52.700;7.306;2022-08-30T05:30:33;7.53;;;5.80;;
11187;SDS011;5650;52.700;7.306;2022-08-30T05:33:02;8.73;;;6.50;;
11187;SDS011;5650;52.700;7.306;2022-08-30T05:35:33;8.27;;;6.20;;
11187;SDS011;5650;52.700;7.306;2022-08-30T05:38:03;9.80;;;5.60;;
11187;SDS011;5650;52.700;7.306;2022-08-30T05:40:30;6.20;;;4.53;;
11187;SDS011;5650;52.700;7.306;2022-08-30T05:43:01;8.60;;;4.80;;
11187;SDS011;5650;52.700;7.306;2022-08-30T05:45:34;5.50;;;3.65;;
11187;SDS011;5650;52.700;7.306;2022-08-30T05:48:07;4.07;;;3.50;;
11187;SDS011;5650;52.700;7.306;2022-08-30T05:50:36;4.65;;;3.42;;
11187;SDS011;5650;52.700;7.306;2022-08-30T05:53:03;8.68;;;3.55;;
11187;SDS011;5650;52.700;7.306;2022-08-30T05:55:30;7.53;;;3.40;;
11187;SDS011;5650;52.700;7.306;2022-08-30T05:58:00;6.90;;;4.03;;
11187;SDS011;5650;52.700;7.306;2022-08-30T06:00:30;6.40;;;3.13;;
11187;SDS011;5650;52.700;7.306;2022-08-30T06:03:00;3.95;;;3.00;;
11187;SDS011;5650;52.700;7.306;2022-08-30T06:05:27;4.53;;;2.75;;
11187;SDS011;5650;52.700;7.306;2022-08-30T06:07:56;4.63;;;2.65;;
11187;SDS011;5650;52.700;7.306;2022-08-30T06:10:29;5.72;;;3.05;;
11187;SDS011;5650;52.700;7.306;2022-08-30T06:12:56;7.43;;;2.60;;
11187;SDS011;5650;52.700;7.306;2022-08-30T06:15:26;5.05;;;2.42;;
11187;SDS011;5650;52.700;7.306;2022-08-30T06:17:53;4.15;;;2.70;;
11187;SDS011;5650;52.700;7.306;2022-08-30T06:20:20;13.38;;;2.92;;
11187;SDS011;5650;52.700;7.306;2022-08-30T06:22:47;5.63;;;2.80;;
11187;SDS011;5650;52.700;7.306;2022-08-30T06:25:19;7.63;;;3.00;;
11187;SDS011;5650;52.700;7.306;2022-08-30T06:27:46;7.10;;;3.20;;
11187;SDS011;5650;52.700;7.306;2022-08-30T06:30:13;9.15;;;2.75;;
11187;SDS011;5650;52.700;7.306;2022-08-30T06:32:43;6.95;;;2.53;;
11187;SDS011;5650;52.700;7.306;2022-08-30T06:35:14;6.60;;;2.38;;
11187;SDS011;5650;52.700;7.306;2022-08-30T06:37:41;8.88;;;2.50;;
11187;SDS011;5650;52.700;7.306;2022-08-30T06:40:09;3.13;;;2.25;;
11187;SDS011;5650;52.700;7.306;2022-08-30T06:42:39;5.07;;;2.60;;
11187;SDS011;5650;52.700;7.306;2022-08-30T06:45:08;3.00;;;2.30;;
11187;SDS011;5650;52.700;7.306;2022-08-30T06:47:35;6.68;;;2.30;;
11187;SDS011;5650;52.700;7.306;2022-08-30T06:50:03;4.65;;;2.17;;
11187;SDS011;5650;52.700;7.306;2022-08-30T06:52:31;4.10;;;2.17;;
11187;SDS011;5650;52.700;7.306;2022-08-30T06:54:58;5.95;;;2.88;;
11187;SDS011;5650;52.700;7.306;2022-08-30T06:57:25;8.02;;;2.47;;
11187;SDS011;5650;52.700;7.306;2022-08-30T06:59:55;10.00;;;2.70;;
11187;SDS011;5650;52.700;7.306;2022-08-30T07:02:25;5.78;;;2.30;;
11187;SDS011;5650;52.700;7.306;2022-08-30T07:04:53;8.93;;;2.30;;
11187;SDS011;5650;52.700;7.306;2022-08-30T07:07:20;5.30;;;2.15;;
11187;SDS011;5650;52.700;7.306;2022-08-30T07:09:50;5.07;;;1.77;;
11187;SDS011;5650;52.700;7.306;2022-08-30T07:12:17;5.88;;;2.00;;
11187;SDS011;5650;52.700;7.306;2022-08-30T07:14:45;5.75;;;1.52;;
11187;SDS011;5650;52.700;7.306;2022-08-30T07:17:14;4.25;;;1.80;;
11187;SDS011;5650;52.700;7.306;2022-08-30T07:20:02;3.95;;;1.67;;
11187;SDS011;5650;52.700;7.306;2022-08-30T07:22:30;3.47;;;1.50;;
11187;SDS011;5650;52.700;7.306;2022-08-30T07:24:58;3.15;;;1.42;;
11187;SDS011;5650;52.700;7.306;2022-08-30T07:27:25;5.22;;;1.75;;
11187;SDS011;5650;52.700;7.306;2022-08-30T07:29:59;6.97;;;1.65;;
11187;SDS011;5650;52.700;7.306;2022-08-30T07:32:33;2.45;;;1.40;;
11187;SDS011;5650;52.700;7.306;2022-08-30T07:35:05;3.58;;;1.40;;
11187;SDS011;5650;52.700;7.306;2022-08-30T07:37:33;4.32;;;1.73;;
11187;SDS011;5650;52.700;7.306;2022-08-30T07:40:00;6.53;;;1.40;;
11187;SDS011;5650;52.700;7.306;2022-08-30T07:42:27;3.50;;;1.30;;
11187;SDS011;5650;52.700;7.306;2022-08-30T07:44:57;3.08;;;1.20;;
11187;SDS011;5650;52.700;7.306;2022-08-30T07:47:27;4.38;;;1.17;;
11187;SDS011;5650;52.700;7.306;2022-08-30T07:49:56;4.55;;;1.25;;
11187;SDS011;5650;52.700;7.306;2022-08-30T07:52:24;2.17;;;1.20;;
11187;SDS011;5650;52.700;7.306;2022-08-30T07:54:53;3.17;;;1.20;;
11187;SDS011;5650;52.700;7.306;2022-08-30T07:57:20;1.88;;;1.10;;
11187;SDS011;5650;52.700;7.306;2022-08-30T07:59:48;5.53;;;1.13;;
11187;SDS011;5650;52.700;7.306;2022-08-30T08:02:16;3.25;;;1.30;;
11187;SDS011;5650;52.700;7.306;2022-08-30T08:04:44;4.85;;;1.23;;
11187;SDS011;5650;52.700;7.306;2022-08-30T08:07:13;3.92;;;1.20;;
11187;SDS011;5650;52.700;7.306;2022-08-30T08:09:40;2.03;;;1.10;;
11187;SDS011;5650;52.700;7.306;2022-08-30T08:12:08;3.63;;;1.20;;
11187;SDS011;5650;52.700;7.306;2022-08-30T08:14:35;6.63;;;1.50;;
11187;SDS011;5650;52.700;7.306;2022-08-30T08:17:03;2.63;;;1.17;;
11187;SDS011;5650;52.700;7.306;2022-08-30T08:19:30;2.78;;;1.13;;
11187;SDS011;5650;52.700;7.306;2022-08-30T08:21:57;5.28;;;1.27;;
11187;SDS011;5650;52.700;7.306;2022-08-30T08:24:26;2.92;;;1.30;;
11187;SDS011;5650;52.700;7.306;2022-08-30T08:26:54;3.47;;;1.27;;
11187;SDS011;5650;52.700;7.306;2022-08-30T08:29:23;5.38;;;1.30;;
11187;SDS011;5650;52.700;7.306;2022-08-30T08:31:53;7.25;;;1.10;;
11187;SDS011;5650;52.700;7.306;2022-08-30T08:34:22;4.65;;;1.42;;
11187;SDS011;5650;52.700;7.306;2022-08-30T08:36:49;1.85;;;1.23;;
11187;SDS011;5650;52.700;7.306;2022-08-30T08:39:16;2.95;;;1.00;;
11187;SDS011;5650;52.700;7.306;2022-08-30T08:41:57;1.83;;;1.08;;
11187;SDS011;5650;52.700;7.306;2022-08-30T08:44:40;4.25;;;1.40;;
11187;SDS011;5650;52.700;7.306;2022-08-30T08:47:16;1.42;;;1.20;;
11187;SDS011;5650;52.700;7.306;2022-08-30T08:49:54;3.70;;;1.25;;
11187;SDS011;5650;52.700;7.306;2022-08-30T08:52:23;4.05;;;1.33;;
11187;SDS011;5650;52.700;7.306;2022-08-30T08:55:12;1.73;;;1.20;;
11187;SDS011;5650;52.700;7.306;2022-08-30T08:57:46;3.03;;;1.35;;
11187;SDS011;5650;52.700;7.306;2022-08-30T09:00:16;5.95;;;1.65;;
11187;SDS011;5650;52.700;7.306;2022-08-30T09:02:44;1.77;;;1.08;;
11187;SDS011;5650;52.700;7.306;2022-08-30T09:05:14;4.07;;;1.48;;
11187;SDS011;5650;52.700;7.306;2022-08-30T09:07:45;3.40;;;1.40;;
11187;SDS011;5650;52.700;7.306;2022-08-30T09:10:15;2.63;;;1.33;;
11187;SDS011;5650;52.700;7.306;2022-08-30T09:12:42;3.03;;;1.10;;
11187;SDS011;5650;52.700;7.306;2022-08-30T09:15:16;2.97;;;1.23;;
11187;SDS011;5650;52.700;7.306;2022-08-30T09:17:54;1.95;;;1.08;;
11187;SDS011;5650;52.700;7.306;2022-08-30T09:20:30;2.72;;;1.23;;
11187;SDS011;5650;52.700;7.306;2022-08-30T09:23:10;2.55;;;1.27;;
11187;SDS011;5650;52.700;7.306;2022-08-30T09:25:57;1.58;;;1.00;;
11187;SDS011;5650;52.700;7.306;2022-08-30T09:28:26;5.25;;;1.27;;
11187;SDS011;5650;52.700;7.306;2022-08-30T09:31:01;4.15;;;1.10;;
11187;SDS011;5650;52.700;7.306;2022-08-30T09:33:33;2.78;;;1.38;;
11187;SDS011;5650;52.700;7.306;2022-08-30T09:36:12;2.58;;;1.25;;
11187;SDS011;5650;52.700;7.306;2022-08-30T09:38:44;4.60;;;1.58;;
11187;SDS011;5650;52.700;7.306;2022-08-30T09:41:29;5.07;;;1.55;;
11187;SDS011;5650;52.700;7.306;2022-08-30T09:44:05;4.07;;;1.20;;
11187;SDS011;5650;52.700;7.306;2022-08-30T09:46:40;3.38;;;1.35;;
11187;SDS011;5650;52.700;7.306;2022-08-30T09:49:29;2.03;;;1.20;;
11187;SDS011;5650;52.700;7.306;2022-08-30T09:55:02;2.17;;;1.30;;
11187;SDS011;5650;52.700;7.306;2022-08-30T09:57:47;2.78;;;1.40;;
11187;SDS011;5650;52.700;7.306;2022-08-30T10:00:23;4.30;;;1.13;;
11187;SDS011;5650;52.700;7.306;2022-08-30T10:03:00;6.07;;;1.45;;
11187;SDS011;5650;52.700;7.306;2022-08-30T10:05:42;3.03;;;1.35;;
11187;SDS011;5650;52.700;7.306;2022-08-30T10:08:19;3.35;;;1.20;;
11187;SDS011;5650;52.700;7.306;2022-08-30T10:10:54;4.15;;;1.20;;
11187;SDS011;5650;52.700;7.306;2022-08-30T10:16:29;5.55;;;1.52;;
11187;SDS011;5650;52.700;7.306;2022-08-30T10:19:13;5.07;;;1.10;;
11187;SDS011;5650;52.700;7.306;2022-08-30T10:21:57;1.98;;;1.30;;
11187;SDS011;5650;52.700;7.306;2022-08-30T10:24:30;2.50;;;1.20;;
11187;SDS011;5650;52.700;7.306;2022-08-30T10:27:04;3.55;;;1.27;;
11187;SDS011;5650;52.700;7.306;2022-08-30T10:29:35;3.03;;;1.10;;
11187;SDS011;5650;52.700;7.306;2022-08-30T10:32:15;2.22;;;1.23;;
11187;SDS011;5650;52.700;7.306;2022-08-30T10:34:48;4.82;;;1.50;;
11187;SDS011;5650;52.700;7.306;2022-08-30T10:37:20;2.17;;;1.10;;
11187;SDS011;5650;52.700;7.306;2022-08-30T10:39:52;5.38;;;1.08;;
11187;SDS011;5650;52.700;7.306;2022-08-30T10:42:23;1.60;;;1.10;;
11187;SDS011;5650;52.700;7.306;2022-08-30T10:44:54;7.13;;;1.00;;
11187;SDS011;5650;52.700;7.306;2022-08-30T10:47:27;5.13;;;1.48;;
11187;SDS011;5650;52.700;7.306;2022-08-30T10:50:05;4.10;;;1.23;;
11187;SDS011;5650;52.700;7.306;2022-08-30T10:52:39;2.53;;;1.02;;
11187;SDS011;5650;52.700;7.306;2022-08-30T10:55:13;3.90;;;1.00;;
11187;SDS011;5650;52.700;7.306;2022-08-30T10:57:42;1.92;;;1.00;;
11187;SDS011;5650;52.700;7.306;2022-08-30T11:00:21;4.35;;;1.20;;
11187;SDS011;5650;52.700;7.306;2022-08-30T11:06:14;3.92;;;1.10;;
11187;SDS011;5650;52.700;7.306;2022-08-30T11:11:53;4.13;;;1.30;;
11187;SDS011;5650;52.700;7.306;2022-08-30T11:14:33;3.25;;;1.10;;
11187;SDS011;5650;52.700;7.306;2022-08-30T11:17:04;2.47;;;1.08;;
11187;SDS011;5650;52.700;7.306;2022-08-30T11:19:44;1.63;;;0.93;;
11187;SDS011;5650;52.700;7.306;2022-08-30T11:22:20;3.70;;;0.85;;
11187;SDS011;5650;52.700;7.306;2022-08-30T11:28:11;1.42;;;1.15;;
11187;SDS011;5650;52.700;7.306;2022-08-30T11:31:06;1.48;;;1.00;;
11187;SDS011;5650;52.700;7.306;2022-08-30T11:33:44;1.45;;;1.20;;
11187;SDS011;5650;52.700;7.306;2022-08-30T11:42:31;2.08;;;1.17;;
11187;SDS011;5650;52.700;7.306;2022-08-30T11:48:36;2.60;;;1.00;;
11187;SDS011;5650;52.700;7.306;2022-08-30T11:51:19;1.67;;;1.15;;
11187;SDS011;5650;52.700;7.306;2022-08-30T11:54:05;2.00;;;0.90;;
11187;SDS011;5650;52.700;7.306;2022-08-30T11:56:44;1.27;;;0.88;;
11187;SDS011;5650;52.700;7.306;2022-08-30T11:59:21;2.15;;;1.17;;
11187;SDS011;5650;52.700;7.306;2022-08-30T12:01:54;2.17;;;0.90;;
11187;SDS011;5650;52.700;7.306;2022-08-30T12:04:30;1.13;;;0.70;;
11187;SDS011;5650;52.700;7.306;2022-08-30T12:07:06;2.38;;;0.98;;
11187;SDS011;5650;52.700;7.306;2022-08-30T12:12:51;3.38;;;1.10;;
11187;SDS011;5650;52.700;7.306;2022-08-30T12:18:23;1.38;;;1.00;;
11187;SDS011;5650;52.700;7.306;2022-08-30T12:21:24;1.63;;;0.90;;
11187;SDS011;5650;52.700;7.306;2022-08-30T12:23:56;2.63;;;0.88;;
11187;SDS011;5650;52.700;7.306;2022-08-30T12:26:28;3.53;;;1.10;;
11187;SDS011;5650;52.700;7.306;2022-08-30T12:29:11;1.85;;;0.75;;
11187;SDS011;5650;52.700;7.306;2022-08-30T12:31:42;1.25;;;0.82;;
11187;SDS011;5650;52.700;7.306;2022-08-30T12:34:19;2.47;;;1.10;;
11187;SDS011;5650;52.700;7.306;2022-08-30T12:36:52;1.63;;;1.02;;
11187;SDS011;5650;52.700;7.306;2022-08-30T12:39:24;3.25;;;1.15;;
11187;SDS011;5650;52.700;7.306;2022-08-30T12:41:53;2.55;;;0.90;;
11187;SDS011;5650;52.700;7.306;2022-08-30T12:44:22;2.47;;;1.10;;
11187;SDS011;5650;52.700;7.306;2022-08-30T12:46:52;1.63;;;1.02;;
11187;SDS011;5650;52.700;7.306;2022-08-30T12:49:25;1.55;;;1.00;;
11187;SDS011;5650;52.700;7.306;2022-08-30T12:51:56;1.67;;;1.10;;
11187;SDS011;5650;52.700;7.306;2022-08-30T12:54:44;1.77;;;0.98;;
11187;SDS011;5650;52.700;7.306;2022-08-30T12:57:12;2.03;;;1.00;;
11187;SDS011;5650;52.700;7.306;2022-08-30T12:59:59;1.58;;;0.95;;
11187;SDS011;5650;52.700;7.306;2022-08-30T13:02:26;3.15;;;1.10;;
11187;SDS011;5650;52.700;7.306;2022-08-30T13:08:12;3.65;;;0.95;;
11187;SDS011;5650;52.700;7.306;2022-08-30T13:10:48;3.90;;;1.15;;
11187;SDS011;5650;52.700;7.306;2022-08-30T13:13:28;2.95;;;1.17;;
11187;SDS011;5650;52.700;7.306;2022-08-30T13:16:05;1.98;;;0.90;;
11187;SDS011;5650;52.700;7.306;2022-08-30T13:18:37;9.88;;;1.00;;
11187;SDS011;5650;52.700;7.306;2022-08-30T13:21:18;3.72;;;1.10;;
11187;SDS011;5650;52.700;7.306;2022-08-30T13:23:49;3.53;;;0.85;;
11187;SDS011;5650;52.700;7.306;2022-08-30T13:26:17;3.58;;;1.10;;
11187;SDS011;5650;52.700;7.306;2022-08-30T13:28:45;1.58;;;0.90;;
11187;SDS011;5650;52.700;7.306;2022-08-30T13:31:21;1.42;;;0.98;;
11187;SDS011;5650;52.700;7.306;2022-08-30T13:33:49;1.60;;;0.90;;
11187;SDS011;5650;52.700;7.306;2022-08-30T13:36:18;2.05;;;0.77;;
11187;SDS011;5650;52.700;7.306;2022-08-30T13:38:51;2.67;;;1.10;;
11187;SDS011;5650;52.700;7.306;2022-08-30T13:41:18;1.90;;;0.90;;
11187;SDS011;5650;52.700;7.306;2022-08-30T13:43:54;1.55;;;0.90;;
11187;SDS011;5650;52.700;7.306;2022-08-30T13:46:21;1.95;;;0.88;;
11187;SDS011;5650;52.700;7.306;2022-08-30T13:48:50;4.53;;;0.88;;
11187;SDS011;5650;52.700;7.306;2022-08-30T13:51:22;2.40;;;0.98;;
11187;SDS011;5650;52.700;7.306;2022-08-30T13:53:51;1.73;;;0.70;;
11187;SDS011;5650;52.700;7.306;2022-08-30T13:56:19;2.47;;;0.80;;
11187;SDS011;5650;52.700;7.306;2022-08-30T13:58:48;2.38;;;1.00;;
11187;SDS011;5650;52.700;7.306;2022-08-30T14:01:26;5.25;;;1.00;;
11187;SDS011;5650;52.700;7.306;2022-08-30T14:03:53;3.08;;;0.90;;
11187;SDS011;5650;52.700;7.306;2022-08-30T14:06:20;4.32;;;1.00;;
11187;SDS011;5650;52.700;7.306;2022-08-30T14:08:48;1.75;;;0.90;;
11187;SDS011;5650;52.700;7.306;2022-08-30T14:11:17;1.50;;;0.98;;
11187;SDS011;5650;52.700;7.306;2022-08-30T14:13:47;2.25;;;1.05;;
11187;SDS011;5650;52.700;7.306;2022-08-30T14:16:14;1.27;;;0.80;;
11187;SDS011;5650;52.700;7.306;2022-08-30T14:18:41;2.42;;;1.08;;
11187;SDS011;5650;52.700;7.306;2022-08-30T14:21:08;1.23;;;0.82;;
11187;SDS011;5650;52.700;7.306;2022-08-30T14:23:38;1.58;;;0.95;;
11187;SDS011;5650;52.700;7.306;2022-08-30T14:26:08;1.20;;;1.00;;
11187;SDS011;5650;52.700;7.306;2022-08-30T14:28:40;5.38;;;0.90;;
11187;SDS011;5650;52.700;7.306;2022-08-30T14:31:08;5.00;;;1.05;;
11187;SDS011;5650;52.700;7.306;2022-08-30T14:33:36;6.97;;;1.10;;
11187;SDS011;5650;52.700;7.306;2022-08-30T14:36:04;1.90;;;0.98;;
11187;SDS011;5650;52.700;7.306;2022-08-30T14:38:31;4.53;;;0.90;;
11187;SDS011;5650;52.700;7.306;2022-08-30T14:40:58;3.58;;;0.85;;
11187;SDS011;5650;52.700;7.306;2022-08-30T14:43:25;1.80;;;0.63;;
11187;SDS011;5650;52.700;7.306;2022-08-30T14:45:56;4.40;;;1.17;;
11187;SDS011;5650;52.700;7.306;2022-08-30T14:48:23;2.83;;;0.80;;
11187;SDS011;5650;52.700;7.306;2022-08-30T14:50:50;4.95;;;0.90;;
11187;SDS011;5650;52.700;7.306;2022-08-30T14:53:17;2.72;;;0.70;;
11187;SDS011;5650;52.700;7.306;2022-08-30T14:55:45;3.60;;;1.10;;
11187;SDS011;5650;52.700;7.306;2022-08-30T14:58:12;2.47;;;0.90;;
11187;SDS011;5650;52.700;7.306;2022-08-30T15:00:41;5.15;;;1.00;;
11187;SDS011;5650;52.700;7.306;2022-08-30T15:03:15;6.50;;;0.88;;
11187;SDS011;5650;52.700;7.306;2022-08-30T15:05:46;3.95;;;1.05;;
11187;SDS011;5650;52.700;7.306;2022-08-30T15:08:14;5.25;;;0.95;;
11187;SDS011;5650;52.700;7.306;2022-08-30T15:10:42;1.55;;;0.90;;
11187;SDS011;5650;52.700;7.306;2022-08-30T15:13:09;3.83;;;0.98;;
11187;SDS011;5650;52.700;7.306;2022-08-30T15:15:36;2.00;;;1.10;;
11187;SDS011;5650;52.700;7.306;2022-08-30T15:18:03;5.28;;;1.00;;
11187;SDS011;5650;52.700;7.306;2022-08-30T15:20:32;2.95;;;1.00;;
11187;SDS011;5650;52.700;7.306;2022-08-30T15:22:59;2.03;;;0.95;;
11187;SDS011;5650;52.700;7.306;2022-08-30T15:25:26;2.63;;;1.10;;
11187;SDS011;5650;52.700;7.306;2022-08-30T15:27:53;2.25;;;0.80;;
11187;SDS011;5650;52.700;7.306;2022-08-30T15:30:20;3.75;;;0.98;;
11187;SDS011;5650;52.700;7.306;2022-08-30T15:32:48;3.60;;;1.30;;
11187;SDS011;5650;52.700;7.306;2022-08-30T15:35:15;5.15;;;1.00;;
11187;SDS011;5650;52.700;7.306;2022-08-30T15:37:43;3.03;;;0.90;;
11187;SDS011;5650;52.700;7.306;2022-08-30T15:40:11;0.88;;;0.80;;
11187;SDS011;5650;52.700;7.306;2022-08-30T15:42:38;3.47;;;1.10;;
11187;SDS011;5650;52.700;7.306;2022-08-30T15:45:06;6.07;;;1.05;;
11187;SDS011;5650;52.700;7.306;2022-08-30T15:47:36;2.08;;;0.90;;
11187;SDS011;5650;52.700;7.306;2022-08-30T15:50:04;2.60;;;0.90;;
11187;SDS011;5650;52.700;7.306;2022-08-30T15:52:32;1.48;;;0.65;;
11187;SDS011;5650;52.700;7.306;2022-08-30T15:55:08;2.42;;;0.70;;
11187;SDS011;5650;52.700;7.306;2022-08-30T15:57:35;2.72;;;0.88;;